Share

Alma, GA

Bacon County (KAMG) Elev 200 ft | 31.54 °N, 82.51 °W | Change Station
Active Advisory: Areal Flood Watch

Current weather conditions updated 6 minutes ago

Clear
Clear
57 °F
Feels Like 57 °F
N
4
Wind Variable Wind from Variable
Sunrise 6:58 AM
Sunset 8:00 PM
Moon Waning Gibbous

Today is forecast to be Cooler than yesterday. Periods of heavy rain.

Pressure 30.22 in
Visibility 10.0 miles
Clouds Clear
Dew Point 49 °F
Humidity 74%
Rainfall 0.00 in
Snow Depth Not available.
UV 0 out of 16
Pollen 8.90 out of 12
Air Quality Not available.
Flu Activity Sporadic
METAR KAMG 180653Z AUTO VRB03KT 10SM CLR 14/09 A3022 RMK AO2 SLP231 T01390094

More Conditions Fewer Conditions

Pressure 30.22 in
Visibility 10.0 miles
Clouds Clear
Dew Point 49 °F
Humidity 74%
Rainfall 0.00 in
Snow Depth Not available.
UV 0 out of 16
Pollen 8.90 out of 12
Air Quality Not available.
Flu Activity Sporadic
METAR KAMG 180653Z AUTO VRB03KT 10SM CLR 14/09 A3022 RMK AO2 SLP231 T01390094

More Conditions Fewer Conditions

10-Day Forecast

Almanac

Astronomy

Apr. 18, 2014 Rise Set
Actual Time 6:58 AM EDT 8:00 PM EDT
Civil Twilight 6:33 AM EDT 8:26 PM EDT
Nautical Twilight 6:03 AM EDT 8:55 PM EDT
Astronomical Twilight 5:32 AM EDT 9:26 PM EDT
Moon 11:36 PM EDT 9:27 AM EDT
Length of Visible Light 13h 52m
Length of Day
13h 02m
Tomorrow will be 1m 48s longer.
Waning Gibbous, 90% of the Moon is Illuminated
Today
Waning Gibbous
Apr 22
Last Quarter
Apr 29
New
May 6
First Quarter
May 14
Full

Today's Extremes

State Highs State Lows

Community

  • SUNRISE THROUGH THE TREES.
    SUNRISE THROUGH THE TREES.
  • Dog Wood Blossoms
    Dog Wood Blossoms
  • Morning Light
    Morning Light
  • New Day
    New Day
  • Lake Michigan Sunrise
    Lake Michigan Sunrise

WunderPhotos

Upload Photos

1,702,278 photos uploaded!

WunderBlogs® & News

Nearby

Snow Depth

Station Depth Elevation
No new snow has been reported.

Coastal Water Temperatures

Place Temperature
No Stations Reporting

Earthquake Activity

City Distance Mag. Time & Date
No recent earthquake activity has been reported nearby.
Minimum magnitude displayed is 2.5.

Nearby Weather Stations

Station Location Temp. Dew Point Humidity Wind Precip. Elev Updated Type
203 N, Mershon, GA 55.1 °F 52 °F 88% East  at  0.0 mph 0.00 in / hr 157 ft 2:59 AM EDT Rapid Fire
RAWS BAXLEY GA, Baxley, GA 57 °F 51 °F 80% SW  at  5 mph 0.00 in / hr 194 ft 2:04 AM EDT MADIS
Douglas Golf Club Area, Douglas, GA 58.3 °F 52 °F 79% ENE  at  0.0 mph 0.00 in / hr 282 ft 2:56 AM EDT Normal
RAWS WAYCROSS GA, Waycross, GA 58 °F 54 °F 85% NE  at  8 mph 0.00 in / hr 136 ft 2:04 AM EDT MADIS
Pineline Ave, Hazlehurst, GA 57.0 °F 56 °F 98% SE  at  2.7 mph - / hr 276 ft 2:44 AM EDT Normal
Baymeadows Lake, Douglas, GA 58.6 °F 53 °F 82% ESE  at  8.1 mph 0.00 in / hr 184 ft 2:58 AM EDT Rapid Fire

Show More Stations Show Fewer Stations

What do you think?

We're not finished. Please let us know what you like, what you don't like, and what you are still missing.